sensor_id;sensor_type;location;lat;lon;timestamp;P1;durP1;ratioP1;P2;durP2;ratioP2
17310;SDS011;8773;43.300;0.394;2022-07-06T00:00:48;3.47;;;2.85;;
17310;SDS011;8773;43.300;0.394;2022-07-06T00:03:16;8.23;;;3.35;;
17310;SDS011;8773;43.300;0.394;2022-07-06T00:05:45;4.03;;;3.40;;
17310;SDS011;8773;43.300;0.394;2022-07-06T00:08:13;5.15;;;3.30;;
17310;SDS011;8773;43.300;0.394;2022-07-06T00:10:42;5.43;;;3.40;;
17310;SDS011;8773;43.300;0.394;2022-07-06T00:13:12;3.40;;;2.80;;
17310;SDS011;8773;43.300;0.394;2022-07-06T00:15:48;5.35;;;3.60;;
17310;SDS011;8773;43.300;0.394;2022-07-06T00:18:16;3.38;;;2.83;;
17310;SDS011;8773;43.300;0.394;2022-07-06T00:20:46;5.22;;;3.35;;
17310;SDS011;8773;43.300;0.394;2022-07-06T00:23:14;2.90;;;2.70;;
17310;SDS011;8773;43.300;0.394;2022-07-06T00:25:42;5.63;;;3.28;;
17310;SDS011;8773;43.300;0.394;2022-07-06T00:28:10;4.70;;;2.97;;
17310;SDS011;8773;43.300;0.394;2022-07-06T00:30:38;5.65;;;3.28;;
17310;SDS011;8773;43.300;0.394;2022-07-06T00:33:07;3.83;;;3.35;;
17310;SDS011;8773;43.300;0.394;2022-07-06T00:35:37;3.65;;;3.22;;
17310;SDS011;8773;43.300;0.394;2022-07-06T00:38:10;6.10;;;2.95;;
17310;SDS011;8773;43.300;0.394;2022-07-06T00:40:38;4.68;;;3.30;;
17310;SDS011;8773;43.300;0.394;2022-07-06T00:43:06;5.55;;;3.10;;
17310;SDS011;8773;43.300;0.394;2022-07-06T00:45:37;5.78;;;3.67;;
17310;SDS011;8773;43.300;0.394;2022-07-06T00:48:05;6.70;;;3.60;;
17310;SDS011;8773;43.300;0.394;2022-07-06T00:50:33;3.80;;;3.00;;
17310;SDS011;8773;43.300;0.394;2022-07-06T00:53:02;7.85;;;3.70;;
17310;SDS011;8773;43.300;0.394;2022-07-06T00:55:37;5.53;;;3.22;;
17310;SDS011;8773;43.300;0.394;2022-07-06T00:58:06;4.95;;;3.42;;
17310;SDS011;8773;43.300;0.394;2022-07-06T01:00:35;4.65;;;3.33;;
17310;SDS011;8773;43.300;0.394;2022-07-06T01:03:04;6.03;;;3.83;;
17310;SDS011;8773;43.300;0.394;2022-07-06T01:05:35;4.07;;;3.38;;
17310;SDS011;8773;43.300;0.394;2022-07-06T01:08:03;6.55;;;3.13;;
17310;SDS011;8773;43.300;0.394;2022-07-06T01:10:32;4.03;;;3.28;;
17310;SDS011;8773;43.300;0.394;2022-07-06T01:13:01;5.38;;;3.08;;
17310;SDS011;8773;43.300;0.394;2022-07-06T01:15:29;4.88;;;3.42;;
17310;SDS011;8773;43.300;0.394;2022-07-06T01:17:57;4.60;;;3.42;;
17310;SDS011;8773;43.300;0.394;2022-07-06T01:20:28;4.60;;;3.00;;
17310;SDS011;8773;43.300;0.394;2022-07-06T01:22:58;4.80;;;2.88;;
17310;SDS011;8773;43.300;0.394;2022-07-06T01:25:26;5.25;;;2.90;;
17310;SDS011;8773;43.300;0.394;2022-07-06T01:27:55;7.63;;;3.42;;
17310;SDS011;8773;43.300;0.394;2022-07-06T01:30:23;3.92;;;2.80;;
17310;SDS011;8773;43.300;0.394;2022-07-06T01:32:51;3.13;;;2.92;;
17310;SDS011;8773;43.300;0.394;2022-07-06T01:35:19;4.38;;;2.65;;
17310;SDS011;8773;43.300;0.394;2022-07-06T01:37:49;5.78;;;3.05;;
17310;SDS011;8773;43.300;0.394;2022-07-06T01:40:17;3.22;;;2.92;;
17310;SDS011;8773;43.300;0.394;2022-07-06T01:42:45;5.55;;;2.92;;
17310;SDS011;8773;43.300;0.394;2022-07-06T01:45:13;5.57;;;2.95;;
17310;SDS011;8773;43.300;0.394;2022-07-06T01:47:41;5.53;;;3.33;;
17310;SDS011;8773;43.300;0.394;2022-07-06T01:50:10;4.10;;;3.03;;
17310;SDS011;8773;43.300;0.394;2022-07-06T01:52:38;6.40;;;3.35;;
17310;SDS011;8773;43.300;0.394;2022-07-06T01:55:08;8.02;;;3.10;;
17310;SDS011;8773;43.300;0.394;2022-07-06T01:57:36;5.32;;;3.25;;
17310;SDS011;8773;43.300;0.394;2022-07-06T02:00:08;6.47;;;3.20;;
17310;SDS011;8773;43.300;0.394;2022-07-06T02:02:36;4.20;;;2.92;;
17310;SDS011;8773;43.300;0.394;2022-07-06T02:05:04;6.60;;;3.63;;
17310;SDS011;8773;43.300;0.394;2022-07-06T02:07:35;5.25;;;3.30;;
17310;SDS011;8773;43.300;0.394;2022-07-06T02:10:03;4.95;;;3.15;;
17310;SDS011;8773;43.300;0.394;2022-07-06T02:12:33;5.72;;;3.20;;
17310;SDS011;8773;43.300;0.394;2022-07-06T02:15:01;3.88;;;3.08;;
17310;SDS011;8773;43.300;0.394;2022-07-06T02:17:29;4.97;;;3.08;;
17310;SDS011;8773;43.300;0.394;2022-07-06T02:19:58;11.55;;;3.30;;
17310;SDS011;8773;43.300;0.394;2022-07-06T02:22:26;5.63;;;3.22;;
17310;SDS011;8773;43.300;0.394;2022-07-06T02:24:54;6.32;;;3.40;;
17310;SDS011;8773;43.300;0.394;2022-07-06T02:27:22;4.57;;;3.40;;
17310;SDS011;8773;43.300;0.394;2022-07-06T02:29:52;3.67;;;2.80;;
17310;SDS011;8773;43.300;0.394;2022-07-06T02:32:20;5.03;;;3.38;;
17310;SDS011;8773;43.300;0.394;2022-07-06T02:34:48;7.30;;;3.15;;
17310;SDS011;8773;43.300;0.394;2022-07-06T02:37:16;5.15;;;3.40;;
17310;SDS011;8773;43.300;0.394;2022-07-06T02:39:44;4.18;;;3.13;;
17310;SDS011;8773;43.300;0.394;2022-07-06T02:42:12;6.22;;;3.60;;
17310;SDS011;8773;43.300;0.394;2022-07-06T02:44:40;3.42;;;3.13;;
17310;SDS011;8773;43.300;0.394;2022-07-06T02:47:10;7.07;;;3.22;;
17310;SDS011;8773;43.300;0.394;2022-07-06T02:49:38;3.47;;;3.10;;
17310;SDS011;8773;43.300;0.394;2022-07-06T02:52:06;4.43;;;3.05;;
17310;SDS011;8773;43.300;0.394;2022-07-06T02:54:34;4.68;;;3.40;;
17310;SDS011;8773;43.300;0.394;2022-07-06T02:57:02;3.03;;;2.83;;
17310;SDS011;8773;43.300;0.394;2022-07-06T02:59:30;5.22;;;3.35;;
17310;SDS011;8773;43.300;0.394;2022-07-06T03:01:59;5.03;;;3.40;;
17310;SDS011;8773;43.300;0.394;2022-07-06T03:04:28;5.68;;;3.25;;
17310;SDS011;8773;43.300;0.394;2022-07-06T03:06:56;4.30;;;3.40;;
17310;SDS011;8773;43.300;0.394;2022-07-06T03:09:24;4.05;;;3.10;;
17310;SDS011;8773;43.300;0.394;2022-07-06T03:11:52;5.13;;;2.80;;
17310;SDS011;8773;43.300;0.394;2022-07-06T03:14:20;6.43;;;3.15;;
17310;SDS011;8773;43.300;0.394;2022-07-06T03:16:48;3.58;;;2.90;;
17310;SDS011;8773;43.300;0.394;2022-07-06T03:19:16;3.95;;;2.88;;
17310;SDS011;8773;43.300;0.394;2022-07-06T03:21:46;3.60;;;3.00;;
17310;SDS011;8773;43.300;0.394;2022-07-06T03:24:14;8.02;;;3.80;;
17310;SDS011;8773;43.300;0.394;2022-07-06T03:26:42;5.82;;;3.25;;
17310;SDS011;8773;43.300;0.394;2022-07-06T03:29:10;4.25;;;3.13;;
17310;SDS011;8773;43.300;0.394;2022-07-06T03:31:39;7.25;;;3.38;;
17310;SDS011;8773;43.300;0.394;2022-07-06T03:34:07;3.90;;;3.03;;
17310;SDS011;8773;43.300;0.394;2022-07-06T03:36:35;5.32;;;3.42;;
17310;SDS011;8773;43.300;0.394;2022-07-06T03:39:06;4.07;;;2.88;;
17310;SDS011;8773;43.300;0.394;2022-07-06T03:41:34;3.22;;;2.92;;
17310;SDS011;8773;43.300;0.394;2022-07-06T03:44:03;3.55;;;2.63;;
17310;SDS011;8773;43.300;0.394;2022-07-06T03:46:31;5.57;;;3.20;;
17310;SDS011;8773;43.300;0.394;2022-07-06T03:48:59;6.97;;;3.03;;
17310;SDS011;8773;43.300;0.394;2022-07-06T03:51:27;4.70;;;3.13;;
17310;SDS011;8773;43.300;0.394;2022-07-06T03:53:55;6.88;;;3.63;;
17310;SDS011;8773;43.300;0.394;2022-07-06T03:56:30;5.72;;;3.33;;
17310;SDS011;8773;43.300;0.394;2022-07-06T03:58:59;4.57;;;2.85;;
17310;SDS011;8773;43.300;0.394;2022-07-06T04:01:30;4.13;;;3.03;;
17310;SDS011;8773;43.300;0.394;2022-07-06T04:03:58;4.07;;;3.03;;
17310;SDS011;8773;43.300;0.394;2022-07-06T04:06:26;4.90;;;3.22;;
17310;SDS011;8773;43.300;0.394;2022-07-06T04:08:54;8.35;;;3.00;;
17310;SDS011;8773;43.300;0.394;2022-07-06T04:11:23;4.43;;;3.03;;
17310;SDS011;8773;43.300;0.394;2022-07-06T04:13:52;4.70;;;3.00;;
17310;SDS011;8773;43.300;0.394;2022-07-06T04:16:21;4.50;;;3.08;;
17310;SDS011;8773;43.300;0.394;2022-07-06T04:18:49;4.20;;;2.97;;
17310;SDS011;8773;43.300;0.394;2022-07-06T04:21:17;5.13;;;3.15;;
17310;SDS011;8773;43.300;0.394;2022-07-06T04:23:45;3.38;;;2.80;;
17310;SDS011;8773;43.300;0.394;2022-07-06T04:26:13;6.45;;;3.10;;
17310;SDS011;8773;43.300;0.394;2022-07-06T04:28:41;3.40;;;3.10;;
17310;SDS011;8773;43.300;0.394;2022-07-06T04:31:11;4.35;;;2.88;;
17310;SDS011;8773;43.300;0.394;2022-07-06T04:33:41;4.90;;;3.00;;
17310;SDS011;8773;43.300;0.394;2022-07-06T04:36:10;5.53;;;3.00;;
17310;SDS011;8773;43.300;0.394;2022-07-06T04:38:38;5.22;;;3.28;;
17310;SDS011;8773;43.300;0.394;2022-07-06T04:41:06;4.20;;;3.17;;
17310;SDS011;8773;43.300;0.394;2022-07-06T04:43:35;7.55;;;3.30;;
17310;SDS011;8773;43.300;0.394;2022-07-06T04:46:03;6.25;;;3.53;;
17310;SDS011;8773;43.300;0.394;2022-07-06T04:48:33;8.90;;;3.83;;
17310;SDS011;8773;43.300;0.394;2022-07-06T04:51:05;5.38;;;3.28;;
17310;SDS011;8773;43.300;0.394;2022-07-06T04:53:33;3.97;;;2.95;;
17310;SDS011;8773;43.300;0.394;2022-07-06T04:56:03;4.80;;;3.42;;
17310;SDS011;8773;43.300;0.394;2022-07-06T04:58:31;4.88;;;2.83;;
17310;SDS011;8773;43.300;0.394;2022-07-06T05:00:59;5.43;;;3.40;;
17310;SDS011;8773;43.300;0.394;2022-07-06T05:03:27;3.67;;;3.35;;
17310;SDS011;8773;43.300;0.394;2022-07-06T05:05:57;7.72;;;3.60;;
17310;SDS011;8773;43.300;0.394;2022-07-06T05:08:25;6.45;;;3.50;;
17310;SDS011;8773;43.300;0.394;2022-07-06T05:10:53;3.42;;;2.95;;
17310;SDS011;8773;43.300;0.394;2022-07-06T05:13:21;6.60;;;3.13;;
17310;SDS011;8773;43.300;0.394;2022-07-06T05:15:49;6.85;;;3.10;;
17310;SDS011;8773;43.300;0.394;2022-07-06T05:18:17;3.40;;;3.10;;
17310;SDS011;8773;43.300;0.394;2022-07-06T05:20:46;4.22;;;3.20;;
17310;SDS011;8773;43.300;0.394;2022-07-06T05:23:15;4.90;;;3.10;;
17310;SDS011;8773;43.300;0.394;2022-07-06T05:25:44;4.07;;;3.00;;
17310;SDS011;8773;43.300;0.394;2022-07-06T05:28:12;5.10;;;2.97;;
17310;SDS011;8773;43.300;0.394;2022-07-06T05:30:40;6.03;;;3.30;;
17310;SDS011;8773;43.300;0.394;2022-07-06T05:33:08;5.63;;;3.50;;
17310;SDS011;8773;43.300;0.394;2022-07-06T05:35:36;4.95;;;2.78;;
17310;SDS011;8773;43.300;0.394;2022-07-06T05:38:18;4.03;;;3.10;;
17310;SDS011;8773;43.300;0.394;2022-07-06T05:41:08;7.07;;;3.83;;
17310;SDS011;8773;43.300;0.394;2022-07-06T05:44:09;6.10;;;3.50;;
17310;SDS011;8773;43.300;0.394;2022-07-06T05:47:09;7.80;;;3.28;;
17310;SDS011;8773;43.300;0.394;2022-07-06T05:50:30;4.90;;;3.42;;
17310;SDS011;8773;43.300;0.394;2022-07-06T05:53:32;7.22;;;2.90;;
17310;SDS011;8773;43.300;0.394;2022-07-06T05:56:18;9.07;;;6.10;;
17310;SDS011;8773;43.300;0.394;2022-07-06T05:59:05;9.48;;;4.50;;
17310;SDS011;8773;43.300;0.394;2022-07-06T06:01:53;7.05;;;4.32;;
17310;SDS011;8773;43.300;0.394;2022-07-06T06:04:41;4.97;;;3.58;;
17310;SDS011;8773;43.300;0.394;2022-07-06T06:07:29;6.90;;;3.22;;
17310;SDS011;8773;43.300;0.394;2022-07-06T06:10:19;6.93;;;4.03;;
17310;SDS011;8773;43.300;0.394;2022-07-06T06:13:09;6.00;;;3.03;;
17310;SDS011;8773;43.300;0.394;2022-07-06T06:15:58;6.45;;;2.92;;
17310;SDS011;8773;43.300;0.394;2022-07-06T06:18:46;5.97;;;3.13;;
17310;SDS011;8773;43.300;0.394;2022-07-06T06:21:35;6.70;;;3.80;;
17310;SDS011;8773;43.300;0.394;2022-07-06T06:24:23;5.88;;;3.60;;
17310;SDS011;8773;43.300;0.394;2022-07-06T06:27:16;6.65;;;3.90;;
17310;SDS011;8773;43.300;0.394;2022-07-06T06:30:05;5.93;;;4.25;;
17310;SDS011;8773;43.300;0.394;2022-07-06T06:33:04;6.25;;;3.70;;
17310;SDS011;8773;43.300;0.394;2022-07-06T06:35:54;4.75;;;3.60;;
17310;SDS011;8773;43.300;0.394;2022-07-06T06:38:42;5.20;;;3.22;;
17310;SDS011;8773;43.300;0.394;2022-07-06T06:41:30;8.40;;;4.32;;
17310;SDS011;8773;43.300;0.394;2022-07-06T06:44:20;9.00;;;3.67;;
17310;SDS011;8773;43.300;0.394;2022-07-06T06:47:08;7.53;;;3.97;;
17310;SDS011;8773;43.300;0.394;2022-07-06T06:49:55;5.15;;;4.25;;
17310;SDS011;8773;43.300;0.394;2022-07-06T06:52:41;5.85;;;4.60;;
17310;SDS011;8773;43.300;0.394;2022-07-06T06:55:28;5.68;;;3.90;;
17310;SDS011;8773;43.300;0.394;2022-07-06T06:58:15;6.88;;;4.10;;
17310;SDS011;8773;43.300;0.394;2022-07-06T07:01:02;7.88;;;4.47;;
17310;SDS011;8773;43.300;0.394;2022-07-06T07:03:50;7.47;;;4.15;;
17310;SDS011;8773;43.300;0.394;2022-07-06T07:06:37;7.05;;;4.53;;
17310;SDS011;8773;43.300;0.394;2022-07-06T07:09:24;9.90;;;5.18;;
17310;SDS011;8773;43.300;0.394;2022-07-06T07:12:10;11.77;;;4.95;;
17310;SDS011;8773;43.300;0.394;2022-07-06T07:14:57;5.97;;;4.85;;
17310;SDS011;8773;43.300;0.394;2022-07-06T07:17:45;6.93;;;3.45;;
17310;SDS011;8773;43.300;0.394;2022-07-06T07:20:31;7.72;;;4.22;;
17310;SDS011;8773;43.300;0.394;2022-07-06T07:23:18;7.03;;;4.00;;
17310;SDS011;8773;43.300;0.394;2022-07-06T07:26:05;5.88;;;4.30;;
17310;SDS011;8773;43.300;0.394;2022-07-06T07:28:52;10.85;;;4.75;;
17310;SDS011;8773;43.300;0.394;2022-07-06T07:31:38;4.93;;;4.10;;
17310;SDS011;8773;43.300;0.394;2022-07-06T07:34:27;4.40;;;3.75;;
17310;SDS011;8773;43.300;0.394;2022-07-06T07:37:13;7.68;;;3.72;;
17310;SDS011;8773;43.300;0.394;2022-07-06T07:40:00;6.07;;;3.83;;
17310;SDS011;8773;43.300;0.394;2022-07-06T07:42:47;7.63;;;4.55;;
17310;SDS011;8773;43.300;0.394;2022-07-06T07:45:33;8.30;;;4.13;;
17310;SDS011;8773;43.300;0.394;2022-07-06T07:48:01;9.50;;;4.50;;
17310;SDS011;8773;43.300;0.394;2022-07-06T07:50:50;9.88;;;4.43;;
17310;SDS011;8773;43.300;0.394;2022-07-06T07:53:37;8.35;;;4.45;;
17310;SDS011;8773;43.300;0.394;2022-07-06T07:56:26;7.07;;;4.78;;
17310;SDS011;8773;43.300;0.394;2022-07-06T07:59:14;9.35;;;5.22;;
17310;SDS011;8773;43.300;0.394;2022-07-06T08:01:42;6.28;;;4.78;;
17310;SDS011;8773;43.300;0.394;2022-07-06T08:04:13;9.48;;;5.03;;
17310;SDS011;8773;43.300;0.394;2022-07-06T08:06:48;8.35;;;5.22;;
17310;SDS011;8773;43.300;0.394;2022-07-06T08:09:43;6.05;;;4.28;;
17310;SDS011;8773;43.300;0.394;2022-07-06T08:12:14;5.07;;;4.47;;
17310;SDS011;8773;43.300;0.394;2022-07-06T08:14:42;8.85;;;4.95;;
17310;SDS011;8773;43.300;0.394;2022-07-06T08:17:23;10.93;;;5.35;;
17310;SDS011;8773;43.300;0.394;2022-07-06T08:19:52;5.15;;;4.75;;
17310;SDS011;8773;43.300;0.394;2022-07-06T08:22:47;7.88;;;4.95;;
17310;SDS011;8773;43.300;0.394;2022-07-06T08:25:18;7.72;;;5.15;;
17310;SDS011;8773;43.300;0.394;2022-07-06T08:27:56;7.55;;;4.57;;
17310;SDS011;8773;43.300;0.394;2022-07-06T08:30:25;8.88;;;4.50;;
17310;SDS011;8773;43.300;0.394;2022-07-06T08:33:12;6.65;;;4.75;;
17310;SDS011;8773;43.300;0.394;2022-07-06T08:35:41;6.75;;;4.93;;
17310;SDS011;8773;43.300;0.394;2022-07-06T08:38:10;6.45;;;4.00;;
17310;SDS011;8773;43.300;0.394;2022-07-06T08:40:39;6.28;;;4.00;;
17310;SDS011;8773;43.300;0.394;2022-07-06T08:43:08;7.40;;;4.38;;
17310;SDS011;8773;43.300;0.394;2022-07-06T08:45:37;6.78;;;4.22;;
17310;SDS011;8773;43.300;0.394;2022-07-06T08:48:06;6.72;;;4.10;;
17310;SDS011;8773;43.300;0.394;2022-07-06T08:50:35;7.00;;;4.07;;
17310;SDS011;8773;43.300;0.394;2022-07-06T08:53:04;6.65;;;4.15;;
17310;SDS011;8773;43.300;0.394;2022-07-06T08:55:34;6.78;;;4.13;;
17310;SDS011;8773;43.300;0.394;2022-07-06T08:58:03;6.63;;;4.28;;
17310;SDS011;8773;43.300;0.394;2022-07-06T09:00:33;5.65;;;3.78;;
17310;SDS011;8773;43.300;0.394;2022-07-06T09:03:01;6.13;;;3.72;;
17310;SDS011;8773;43.300;0.394;2022-07-06T09:05:30;6.13;;;4.10;;
17310;SDS011;8773;43.300;0.394;2022-07-06T09:07:59;9.70;;;4.22;;
17310;SDS011;8773;43.300;0.394;2022-07-06T09:10:29;6.78;;;3.53;;
17310;SDS011;8773;43.300;0.394;2022-07-06T09:13:05;4.20;;;3.80;;
17310;SDS011;8773;43.300;0.394;2022-07-06T09:15:42;6.18;;;4.18;;
17310;SDS011;8773;43.300;0.394;2022-07-06T09:18:11;6.95;;;4.40;;
17310;SDS011;8773;43.300;0.394;2022-07-06T09:20:40;6.85;;;4.50;;
17310;SDS011;8773;43.300;0.394;2022-07-06T09:23:08;7.38;;;4.47;;
17310;SDS011;8773;43.300;0.394;2022-07-06T09:25:42;5.57;;;4.05;;
17310;SDS011;8773;43.300;0.394;2022-07-06T09:28:15;6.30;;;4.10;;
17310;SDS011;8773;43.300;0.394;2022-07-06T09:30:43;6.28;;;4.20;;
17310;SDS011;8773;43.300;0.394;2022-07-06T09:33:12;8.27;;;4.18;;
17310;SDS011;8773;43.300;0.394;2022-07-06T09:35:45;8.07;;;4.15;;
17310;SDS011;8773;43.300;0.394;2022-07-06T09:38:14;6.38;;;4.60;;
17310;SDS011;8773;43.300;0.394;2022-07-06T09:40:49;3.97;;;3.22;;
17310;SDS011;8773;43.300;0.394;2022-07-06T09:43:19;6.30;;;3.90;;
17310;SDS011;8773;43.300;0.394;2022-07-06T09:45:49;6.25;;;3.55;;
17310;SDS011;8773;43.300;0.394;2022-07-06T09:48:21;5.32;;;3.22;;
17310;SDS011;8773;43.300;0.394;2022-07-06T09:50:52;5.30;;;3.22;;
17310;SDS011;8773;43.300;0.394;2022-07-06T09:53:21;5.78;;;3.42;;
17310;SDS011;8773;43.300;0.394;2022-07-06T09:55:51;5.13;;;3.58;;
17310;SDS011;8773;43.300;0.394;2022-07-06T09:58:23;8.60;;;3.28;;
17310;SDS011;8773;43.300;0.394;2022-07-06T10:01:11;4.50;;;3.42;;
17310;SDS011;8773;43.300;0.394;2022-07-06T10:03:39;8.55;;;3.53;;
17310;SDS011;8773;43.300;0.394;2022-07-06T10:06:09;3.83;;;3.13;;
17310;SDS011;8773;43.300;0.394;2022-07-06T10:08:37;4.18;;;3.40;;
17310;SDS011;8773;43.300;0.394;2022-07-06T10:11:09;5.85;;;3.20;;
17310;SDS011;8773;43.300;0.394;2022-07-06T10:13:42;6.18;;;3.13;;
17310;SDS011;8773;43.300;0.394;2022-07-06T10:16:14;5.38;;;3.20;;
17310;SDS011;8773;43.300;0.394;2022-07-06T10:18:45;6.75;;;3.63;;
17310;SDS011;8773;43.300;0.394;2022-07-06T10:21:14;5.75;;;3.10;;
17310;SDS011;8773;43.300;0.394;2022-07-06T10:23:43;3.58;;;3.20;;
17310;SDS011;8773;43.300;0.394;2022-07-06T10:26:12;5.63;;;3.90;;
17310;SDS011;8773;43.300;0.394;2022-07-06T10:28:43;3.90;;;3.50;;
17310;SDS011;8773;43.300;0.394;2022-07-06T10:31:13;7.22;;;3.50;;
17310;SDS011;8773;43.300;0.394;2022-07-06T10:33:42;6.43;;;3.90;;
17310;SDS011;8773;43.300;0.394;2022-07-06T10:36:12;9.52;;;3.72;;
17310;SDS011;8773;43.300;0.394;2022-07-06T10:38:41;9.98;;;4.75;;
17310;SDS011;8773;43.300;0.394;2022-07-06T10:41:20;6.80;;;4.45;;
17310;SDS011;8773;43.300;0.394;2022-07-06T10:43:58;7.93;;;3.92;;
17310;SDS011;8773;43.300;0.394;2022-07-06T10:46:49;7.43;;;3.63;;
17310;SDS011;8773;43.300;0.394;2022-07-06T10:49:19;3.42;;;2.78;;
17310;SDS011;8773;43.300;0.394;2022-07-06T10:52:07;4.95;;;3.30;;
17310;SDS011;8773;43.300;0.394;2022-07-06T10:54:38;5.38;;;3.22;;
17310;SDS011;8773;43.300;0.394;2022-07-06T10:57:08;5.00;;;3.35;;
17310;SDS011;8773;43.300;0.394;2022-07-06T10:59:39;6.00;;;3.50;;
17310;SDS011;8773;43.300;0.394;2022-07-06T11:02:13;5.75;;;3.45;;
17310;SDS011;8773;43.300;0.394;2022-07-06T11:04:42;7.05;;;3.53;;
17310;SDS011;8773;43.300;0.394;2022-07-06T11:07:12;4.43;;;3.30;;
17310;SDS011;8773;43.300;0.394;2022-07-06T11:09:41;4.45;;;3.80;;
17310;SDS011;8773;43.300;0.394;2022-07-06T11:12:17;4.45;;;3.30;;
17310;SDS011;8773;43.300;0.394;2022-07-06T11:14:48;3.97;;;2.85;;
17310;SDS011;8773;43.300;0.394;2022-07-06T11:17:19;5.47;;;3.33;;
17310;SDS011;8773;43.300;0.394;2022-07-06T11:19:48;6.63;;;3.03;;
17310;SDS011;8773;43.300;0.394;2022-07-06T11:22:23;6.18;;;3.25;;
17310;SDS011;8773;43.300;0.394;2022-07-06T11:24:53;5.18;;;3.22;;
17310;SDS011;8773;43.300;0.394;2022-07-06T11:27:22;5.45;;;3.17;;
17310;SDS011;8773;43.300;0.394;2022-07-06T11:29:52;4.32;;;3.28;;
17310;SDS011;8773;43.300;0.394;2022-07-06T11:32:22;5.93;;;3.20;;
17310;SDS011;8773;43.300;0.394;2022-07-06T11:34:51;6.65;;;3.63;;
17310;SDS011;8773;43.300;0.394;2022-07-06T11:37:20;6.07;;;4.00;;
17310;SDS011;8773;43.300;0.394;2022-07-06T11:39:49;4.20;;;3.50;;
17310;SDS011;8773;43.300;0.394;2022-07-06T11:42:17;3.20;;;2.90;;
17310;SDS011;8773;43.300;0.394;2022-07-06T11:44:46;4.82;;;2.67;;
17310;SDS011;8773;43.300;0.394;2022-07-06T11:47:17;4.15;;;2.90;;
17310;SDS011;8773;43.300;0.394;2022-07-06T11:49:50;5.45;;;3.45;;
17310;SDS011;8773;43.300;0.394;2022-07-06T11:52:19;6.05;;;3.50;;
17310;SDS011;8773;43.300;0.394;2022-07-06T11:54:56;4.78;;;3.05;;
17310;SDS011;8773;43.300;0.394;2022-07-06T11:57:25;4.85;;;3.15;;
17310;SDS011;8773;43.300;0.394;2022-07-06T11:59:57;3.35;;;3.05;;
17310;SDS011;8773;43.300;0.394;2022-07-06T12:02:27;4.63;;;3.13;;
17310;SDS011;8773;43.300;0.394;2022-07-06T12:04:57;4.22;;;2.78;;
17310;SDS011;8773;43.300;0.394;2022-07-06T12:07:27;6.15;;;3.22;;
17310;SDS011;8773;43.300;0.394;2022-07-06T12:09:55;5.40;;;3.03;;
17310;SDS011;8773;43.300;0.394;2022-07-06T12:12:27;4.40;;;3.10;;
17310;SDS011;8773;43.300;0.394;2022-07-06T12:14:55;6.60;;;3.13;;
17310;SDS011;8773;43.300;0.394;2022-07-06T12:17:23;4.32;;;3.00;;
17310;SDS011;8773;43.300;0.394;2022-07-06T12:19:54;4.57;;;3.10;;
17310;SDS011;8773;43.300;0.394;2022-07-06T12:22:24;4.47;;;2.90;;
17310;SDS011;8773;43.300;0.394;2022-07-06T12:24:53;4.55;;;3.10;;
17310;SDS011;8773;43.300;0.394;2022-07-06T12:27:21;6.45;;;2.90;;
17310;SDS011;8773;43.300;0.394;2022-07-06T12:29:50;6.00;;;3.33;;
17310;SDS011;8773;43.300;0.394;2022-07-06T12:32:18;5.07;;;3.45;;
17310;SDS011;8773;43.300;0.394;2022-07-06T12:35:02;4.38;;;3.00;;
17310;SDS011;8773;43.300;0.394;2022-07-06T12:37:58;8.77;;;3.60;;
17310;SDS011;8773;43.300;0.394;2022-07-06T12:40:58;5.47;;;3.22;;
17310;SDS011;8773;43.300;0.394;2022-07-06T12:44:05;4.18;;;3.22;;
17310;SDS011;8773;43.300;0.394;2022-07-06T12:46:44;6.55;;;3.47;;
17310;SDS011;8773;43.300;0.394;2022-07-06T12:49:13;5.38;;;3.42;;
17310;SDS011;8773;43.300;0.394;2022-07-06T12:51:55;5.72;;;3.28;;
17310;SDS011;8773;43.300;0.394;2022-07-06T12:54:25;4.75;;;3.30;;
17310;SDS011;8773;43.300;0.394;2022-07-06T12:56:59;5.15;;;3.00;;
17310;SDS011;8773;43.300;0.394;2022-07-06T12:59:40;5.55;;;3.00;;
17310;SDS011;8773;43.300;0.394;2022-07-06T13:02:10;4.65;;;3.05;;
17310;SDS011;8773;43.300;0.394;2022-07-06T13:05:03;7.47;;;3.33;;
17310;SDS011;8773;43.300;0.394;2022-07-06T13:07:34;5.25;;;3.30;;
17310;SDS011;8773;43.300;0.394;2022-07-06T13:10:05;6.15;;;3.30;;
17310;SDS011;8773;43.300;0.394;2022-07-06T13:12:35;5.30;;;3.45;;
17310;SDS011;8773;43.300;0.394;2022-07-06T13:15:04;4.22;;;3.33;;
17310;SDS011;8773;43.300;0.394;2022-07-06T13:17:33;6.53;;;3.72;;
17310;SDS011;8773;43.300;0.394;2022-07-06T13:20:02;4.80;;;3.08;;
17310;SDS011;8773;43.300;0.394;2022-07-06T13:22:30;9.40;;;3.75;;
17310;SDS011;8773;43.300;0.394;2022-07-06T13:25:00;6.00;;;3.50;;
17310;SDS011;8773;43.300;0.394;2022-07-06T13:27:28;9.07;;;4.45;;
17310;SDS011;8773;43.300;0.394;2022-07-06T13:29:57;8.77;;;3.53;;
17310;SDS011;8773;43.300;0.394;2022-07-06T13:32:25;7.22;;;3.67;;
17310;SDS011;8773;43.300;0.394;2022-07-06T13:34:53;5.45;;;3.83;;
17310;SDS011;8773;43.300;0.394;2022-07-06T13:37:23;5.07;;;3.55;;
17310;SDS011;8773;43.300;0.394;2022-07-06T13:39:51;5.15;;;3.45;;
17310;SDS011;8773;43.300;0.394;2022-07-06T13:42:20;6.20;;;3.75;;
17310;SDS011;8773;43.300;0.394;2022-07-06T13:44:48;5.47;;;4.40;;
17310;SDS011;8773;43.300;0.394;2022-07-06T13:47:16;6.38;;;3.95;;
17310;SDS011;8773;43.300;0.394;2022-07-06T13:49:44;7.25;;;4.60;;
17310;SDS011;8773;43.300;0.394;2022-07-06T13:52:14;6.43;;;3.97;;
17310;SDS011;8773;43.300;0.394;2022-07-06T13:54:42;4.07;;;3.67;;
17310;SDS011;8773;43.300;0.394;2022-07-06T13:57:10;4.75;;;3.55;;
17310;SDS011;8773;43.300;0.394;2022-07-06T13:59:39;3.55;;;3.25;;
17310;SDS011;8773;43.300;0.394;2022-07-06T14:02:12;4.68;;;3.53;;
17310;SDS011;8773;43.300;0.394;2022-07-06T14:04:40;7.90;;;3.90;;
17310;SDS011;8773;43.300;0.394;2022-07-06T14:07:08;4.93;;;3.88;;
17310;SDS011;8773;43.300;0.394;2022-07-06T14:09:41;6.07;;;3.70;;
17310;SDS011;8773;43.300;0.394;2022-07-06T14:12:11;6.78;;;3.90;;
17310;SDS011;8773;43.300;0.394;2022-07-06T14:14:40;5.43;;;3.38;;
17310;SDS011;8773;43.300;0.394;2022-07-06T14:17:08;5.70;;;3.35;;
17310;SDS011;8773;43.300;0.394;2022-07-06T14:19:37;4.07;;;3.55;;
17310;SDS011;8773;43.300;0.394;2022-07-06T14:22:05;3.40;;;3.10;;
17310;SDS011;8773;43.300;0.394;2022-07-06T14:24:33;4.40;;;3.67;;
17310;SDS011;8773;43.300;0.394;2022-07-06T14:27:02;4.45;;;3.35;;
17310;SDS011;8773;43.300;0.394;2022-07-06T14:29:31;8.68;;;3.90;;
17310;SDS011;8773;43.300;0.394;2022-07-06T14:32:00;4.55;;;3.42;;
17310;SDS011;8773;43.300;0.394;2022-07-06T14:34:28;4.40;;;3.47;;
17310;SDS011;8773;43.300;0.394;2022-07-06T14:36:56;6.35;;;3.50;;
17310;SDS011;8773;43.300;0.394;2022-07-06T14:39:24;5.30;;;3.00;;
17310;SDS011;8773;43.300;0.394;2022-07-06T14:41:52;5.18;;;4.18;;
17310;SDS011;8773;43.300;0.394;2022-07-06T14:44:20;5.32;;;3.38;;
17310;SDS011;8773;43.300;0.394;2022-07-06T14:46:48;3.90;;;3.13;;
17310;SDS011;8773;43.300;0.394;2022-07-06T14:49:20;6.65;;;3.90;;
17310;SDS011;8773;43.300;0.394;2022-07-06T14:51:48;3.47;;;3.15;;
17310;SDS011;8773;43.300;0.394;2022-07-06T14:54:16;9.05;;;3.75;;
17310;SDS011;8773;43.300;0.394;2022-07-06T14:56:44;4.53;;;3.17;;
17310;SDS011;8773;43.300;0.394;2022-07-06T14:59:12;3.60;;;3.30;;
17310;SDS011;8773;43.300;0.394;2022-07-06T15:01:50;3.60;;;3.30;;
17310;SDS011;8773;43.300;0.394;2022-07-06T15:04:18;3.92;;;2.97;;
17310;SDS011;8773;43.300;0.394;2022-07-06T15:06:48;6.40;;;3.55;;
17310;SDS011;8773;43.300;0.394;2022-07-06T15:09:21;5.45;;;2.85;;
17310;SDS011;8773;43.300;0.394;2022-07-06T15:11:49;3.88;;;2.67;;
17310;SDS011;8773;43.300;0.394;2022-07-06T15:14:20;6.20;;;3.13;;
17310;SDS011;8773;43.300;0.394;2022-07-06T15:16:48;5.18;;;2.97;;
17310;SDS011;8773;43.300;0.394;2022-07-06T15:19:16;5.40;;;3.63;;
17310;SDS011;8773;43.300;0.394;2022-07-06T15:21:45;4.70;;;3.22;;
17310;SDS011;8773;43.300;0.394;2022-07-06T15:24:13;4.15;;;3.05;;
17310;SDS011;8773;43.300;0.394;2022-07-06T15:26:42;4.40;;;3.10;;
17310;SDS011;8773;43.300;0.394;2022-07-06T15:29:10;4.18;;;2.78;;
17310;SDS011;8773;43.300;0.394;2022-07-06T15:31:38;5.70;;;3.40;;
17310;SDS011;8773;43.300;0.394;2022-07-06T15:34:06;4.75;;;2.90;;